createdAt,value
2017-09-22T00:00:51.392Z,0
2017-09-22T00:01:51.391Z,0
2017-09-22T00:02:51.389Z,0
2017-09-22T00:03:51.404Z,0
2017-09-22T00:04:51.300Z,0
2017-09-22T00:05:51.344Z,0
2017-09-22T00:06:51.345Z,0
2017-09-22T00:07:51.350Z,0
2017-09-22T00:08:51.398Z,0
2017-09-22T00:09:51.353Z,0
2017-09-22T00:10:51.410Z,0
2017-09-22T00:11:51.345Z,0
2017-09-22T00:12:51.398Z,0
2017-09-22T00:13:51.401Z,0
2017-09-22T00:14:51.352Z,0
2017-09-22T00:15:51.418Z,0
2017-09-22T00:16:51.354Z,0
2017-09-22T00:17:51.419Z,0
2017-09-22T00:18:51.417Z,0
2017-09-22T00:19:51.360Z,0
2017-09-22T00:20:51.299Z,0
2017-09-22T00:21:51.273Z,0
2017-09-22T00:22:51.316Z,0
2017-09-22T00:23:51.359Z,0
2017-09-22T00:24:51.314Z,0
2017-09-22T00:25:51.326Z,0
2017-09-22T00:26:51.297Z,0
2017-09-22T00:27:51.308Z,0
2017-09-22T00:28:51.365Z,0
2017-09-22T00:29:51.367Z,0
2017-09-22T00:30:51.325Z,0
2017-09-22T00:31:51.369Z,0
2017-09-22T00:32:51.354Z,0
2017-09-22T00:33:51.326Z,0
2017-09-22T00:34:51.396Z,0
2017-09-22T00:35:51.355Z,0
2017-09-22T00:36:51.396Z,0
2017-09-22T00:37:51.375Z,0
2017-09-22T00:38:51.406Z,0
2017-09-22T00:39:51.377Z,0
2017-09-22T00:40:51.407Z,0
2017-09-22T00:41:51.368Z,0
2017-09-22T00:42:51.363Z,0
2017-09-22T00:43:51.365Z,0
2017-09-22T00:44:51.367Z,0
2017-09-22T00:45:51.368Z,0
2017-09-22T00:46:51.373Z,0
2017-09-22T00:47:51.417Z,0
2017-09-22T00:48:51.416Z,0
2017-09-22T00:49:51.369Z,0
2017-09-22T00:50:51.420Z,0
2017-09-22T00:51:51.419Z,0
2017-09-22T00:52:51.436Z,0
2017-09-22T00:53:51.380Z,0
2017-09-22T00:54:51.381Z,0
2017-09-22T00:55:51.436Z,0
2017-09-22T00:56:51.377Z,0
2017-09-22T00:57:51.426Z,0
2017-09-22T00:58:51.378Z,0
2017-09-22T00:59:51.463Z,0
2017-09-22T01:00:51.338Z,0
2017-09-22T01:01:51.394Z,0
2017-09-22T01:02:51.314Z,0
2017-09-22T01:03:51.347Z,0
2017-09-22T01:04:51.349Z,0
2017-09-22T01:05:51.397Z,0
2017-09-22T01:06:51.349Z,0
2017-09-22T01:07:51.344Z,0
2017-09-22T01:08:51.318Z,0
2017-09-22T01:09:51.348Z,0
2017-09-22T01:10:51.428Z,0
2017-09-22T01:11:51.348Z,0
2017-09-22T01:12:51.377Z,0
2017-09-22T01:13:51.488Z,0
2017-09-22T01:14:51.429Z,0
2017-09-22T01:15:51.384Z,0
2017-09-22T01:16:51.386Z,0
2017-09-22T01:17:51.386Z,0
2017-09-22T01:18:51.431Z,0
2017-09-22T01:19:51.428Z,0
2017-09-22T01:20:51.394Z,0
2017-09-22T01:21:51.384Z,0
2017-09-22T01:22:51.425Z,0
2017-09-22T01:23:51.364Z,0
2017-09-22T01:24:51.349Z,0
2017-09-22T01:25:51.420Z,0
2017-09-22T01:26:51.387Z,0
2017-09-22T01:27:51.367Z,0
2017-09-22T01:28:51.386Z,0
2017-09-22T01:29:51.384Z,0
2017-09-22T01:30:51.395Z,0
2017-09-22T01:31:51.404Z,0
2017-09-22T01:32:51.458Z,0
2017-09-22T01:33:51.457Z,0
2017-09-22T01:34:51.458Z,0
2017-09-22T01:35:51.458Z,0
2017-09-22T01:36:51.448Z,0
2017-09-22T01:37:51.483Z,0
2017-09-22T01:38:51.409Z,0
2017-09-22T01:39:51.462Z,0
2017-09-22T01:40:51.273Z,0
2017-09-22T01:41:51.336Z,0
2017-09-22T01:42:51.327Z,0
2017-09-22T01:43:51.325Z,0
2017-09-22T01:44:51.281Z,0
2017-09-22T01:45:51.328Z,0
2017-09-22T01:46:51.341Z,0
2017-09-22T01:47:51.328Z,0
2017-09-22T01:48:51.446Z,0
2017-09-22T01:49:51.283Z,0
2017-09-22T01:50:51.366Z,0
2017-09-22T01:51:51.369Z,0
2017-09-22T01:52:51.400Z,0
2017-09-22T01:53:51.406Z,0
2017-09-22T01:54:51.370Z,0
2017-09-22T01:55:51.344Z,0
2017-09-22T01:56:51.374Z,0
2017-09-22T01:57:51.379Z,0
2017-09-22T01:58:51.404Z,0
2017-09-22T01:59:51.346Z,0
2017-09-22T02:00:51.381Z,0
2017-09-22T02:01:51.450Z,0
2017-09-22T02:02:51.384Z,0
2017-09-22T02:03:51.361Z,0
2017-09-22T02:04:51.404Z,0
2017-09-22T02:05:51.418Z,0
2017-09-22T02:06:51.359Z,0
2017-09-22T02:07:51.386Z,0
2017-09-22T02:08:51.367Z,0
2017-09-22T02:09:51.416Z,0
2017-09-22T02:10:51.394Z,0
2017-09-22T02:11:51.413Z,0
2017-09-22T02:12:51.363Z,0
2017-09-22T02:13:51.461Z,0
2017-09-22T02:14:51.413Z,0
2017-09-22T02:15:51.395Z,0
2017-09-22T02:16:51.435Z,0
2017-09-22T02:17:51.428Z,0
2017-09-22T02:18:51.417Z,0
2017-09-22T02:19:51.371Z,0
2017-09-22T02:20:51.470Z,0
2017-09-22T02:21:51.421Z,0
2017-09-22T02:22:51.419Z,0
2017-09-22T02:23:51.406Z,0
2017-09-22T02:24:51.469Z,0
2017-09-22T02:25:51.489Z,0
2017-09-22T02:26:51.475Z,0
2017-09-22T02:27:51.430Z,0
2017-09-22T02:28:51.427Z,0
2017-09-22T02:29:51.438Z,0
2017-09-22T02:30:51.431Z,0
2017-09-22T02:31:51.436Z,0
2017-09-22T02:32:51.414Z,0
2017-09-22T02:33:51.480Z,0
2017-09-22T02:34:51.496Z,0
2017-09-22T02:35:51.430Z,0
2017-09-22T02:36:51.481Z,0
2017-09-22T02:37:51.431Z,0
2017-09-22T02:38:51.433Z,0
2017-09-22T02:39:51.449Z,0
2017-09-22T02:40:51.435Z,0
2017-09-22T02:41:51.436Z,0
2017-09-22T02:42:51.435Z,0
2017-09-22T02:43:51.434Z,0
2017-09-22T02:44:51.438Z,0
2017-09-22T02:45:51.435Z,0
2017-09-22T02:46:51.503Z,0
2017-09-22T02:47:51.443Z,0
2017-09-22T02:48:51.510Z,0
2017-09-22T02:49:51.493Z,0
2017-09-22T02:50:51.393Z,0
2017-09-22T02:51:51.372Z,0
2017-09-22T02:52:51.385Z,0
2017-09-22T02:53:51.387Z,0
2017-09-22T02:54:51.325Z,0
2017-09-22T02:55:51.368Z,0
2017-09-22T02:56:51.400Z,0
2017-09-22T02:57:51.388Z,0
2017-09-22T02:58:51.375Z,0
2017-09-22T02:59:51.371Z,0
2017-09-22T03:00:51.458Z,0
2017-09-22T03:01:51.484Z,0
2017-09-22T03:02:51.449Z,0
2017-09-22T03:03:51.493Z,0
2017-09-22T03:04:51.463Z,0
2017-09-22T03:05:51.466Z,0
2017-09-22T03:06:51.455Z,0
2017-09-22T03:07:51.454Z,0
2017-09-22T03:08:51.521Z,0
2017-09-22T03:09:51.504Z,0
2017-09-22T03:10:51.392Z,0
2017-09-22T03:11:51.391Z,0
2017-09-22T03:12:51.447Z,0
2017-09-22T03:13:51.456Z,0
2017-09-22T03:14:51.415Z,0
2017-09-22T03:15:51.424Z,0
2017-09-22T03:16:51.423Z,0
2017-09-22T03:17:51.473Z,0
2017-09-22T03:18:51.396Z,0
2017-09-22T03:19:51.397Z,0
2017-09-22T03:20:51.398Z,0
2017-09-22T03:21:51.424Z,0
2017-09-22T03:22:51.431Z,0
2017-09-22T03:23:51.398Z,0
2017-09-22T03:24:51.424Z,0
2017-09-22T03:25:51.397Z,0
2017-09-22T03:26:51.425Z,0
2017-09-22T03:27:51.431Z,0
2017-09-22T03:28:51.430Z,0
2017-09-22T03:29:51.474Z,0
2017-09-22T03:30:51.466Z,0
2017-09-22T03:31:51.509Z,0
2017-09-22T03:32:51.538Z,0
2017-09-22T03:33:51.512Z,0
2017-09-22T03:34:51.472Z,0
2017-09-22T03:35:51.463Z,0
2017-09-22T03:36:51.467Z,0
2017-09-22T03:37:51.484Z,0
2017-09-22T03:38:51.518Z,0
2017-09-22T03:39:51.473Z,0
2017-09-22T03:40:51.521Z,0
2017-09-22T03:41:51.520Z,0
2017-09-22T03:42:51.490Z,0
2017-09-22T03:43:51.517Z,0
2017-09-22T03:44:51.418Z,0
2017-09-22T03:45:51.499Z,0
2017-09-22T03:46:51.528Z,0
2017-09-22T03:47:51.521Z,0
2017-09-22T03:48:51.544Z,0
2017-09-22T03:49:51.521Z,0
2017-09-22T03:50:51.500Z,0
2017-09-22T03:51:51.525Z,0
2017-09-22T03:52:51.480Z,0
2017-09-22T03:53:51.478Z,0
2017-09-22T03:54:51.477Z,0
2017-09-22T03:55:51.479Z,0
2017-09-22T03:56:51.524Z,0
2017-09-22T03:57:51.550Z,0
2017-09-22T03:58:51.529Z,0
2017-09-22T03:59:51.534Z,0
2017-09-22T04:00:51.526Z,0
2017-09-22T04:01:51.533Z,0
2017-09-22T04:02:51.479Z,0
2017-09-22T04:03:51.529Z,0
2017-09-22T04:04:51.523Z,0
2017-09-22T04:05:51.456Z,0
2017-09-22T04:06:51.491Z,0
2017-09-22T04:07:51.486Z,0
2017-09-22T04:08:51.533Z,0
2017-09-22T04:09:51.461Z,0
2017-09-22T04:10:51.485Z,0
2017-09-22T04:11:51.557Z,0
2017-09-22T04:12:51.533Z,0
2017-09-22T04:13:51.491Z,0
2017-09-22T04:14:51.539Z,0
2017-09-22T04:15:51.492Z,0
2017-09-22T04:16:51.519Z,0
2017-09-22T04:17:51.535Z,0
2017-09-22T04:18:51.506Z,0
2017-09-22T04:19:51.539Z,0
2017-09-22T04:20:51.542Z,0
2017-09-22T04:21:51.541Z,0
2017-09-22T04:22:51.545Z,0
2017-09-22T04:23:51.497Z,0
2017-09-22T04:24:51.571Z,0
2017-09-22T04:25:51.495Z,0
2017-09-22T04:26:51.498Z,0
2017-09-22T04:27:51.494Z,0
2017-09-22T04:28:51.506Z,0
2017-09-22T04:29:51.543Z,0
2017-09-22T04:30:51.530Z,0
2017-09-22T04:31:51.514Z,0
2017-09-22T04:32:51.626Z,0
2017-09-22T04:33:51.536Z,0
2017-09-22T04:34:51.476Z,0
2017-09-22T04:35:51.499Z,0
2017-09-22T04:36:51.474Z,0
2017-09-22T04:37:51.517Z,0
2017-09-22T04:38:51.548Z,0
2017-09-22T04:39:51.450Z,0
2017-09-22T04:40:51.536Z,0
2017-09-22T04:41:51.506Z,0
2017-09-22T04:42:51.556Z,0
2017-09-22T04:43:51.473Z,0
2017-09-22T04:44:51.490Z,0
2017-09-22T04:45:51.561Z,0
2017-09-22T04:46:51.556Z,0
2017-09-22T04:47:51.667Z,0
2017-09-22T04:48:51.562Z,0
2017-09-22T04:49:51.523Z,0
2017-09-22T04:50:51.513Z,0
2017-09-22T04:51:51.479Z,0
2017-09-22T04:52:51.517Z,0
2017-09-22T04:53:51.480Z,0
2017-09-22T04:54:51.477Z,0
2017-09-22T04:55:51.477Z,0
2017-09-22T04:56:51.454Z,0
2017-09-22T04:57:51.454Z,0
2017-09-22T04:58:51.530Z,0
2017-09-22T04:59:51.482Z,0
2017-09-22T05:00:51.480Z,0
2017-09-22T05:01:51.547Z,0
2017-09-22T05:02:51.515Z,0
2017-09-22T05:03:51.516Z,0
2017-09-22T05:04:51.488Z,0
2017-09-22T05:05:51.565Z,0
2017-09-22T05:06:51.535Z,0
2017-09-22T05:07:51.559Z,0
2017-09-22T05:08:51.565Z,0
2017-09-22T05:09:51.487Z,0
2017-09-22T05:10:51.423Z,0
2017-09-22T05:11:51.427Z,0
2017-09-22T05:12:51.424Z,0
2017-09-22T05:13:51.426Z,0
2017-09-22T05:14:51.427Z,0
2017-09-22T05:15:51.430Z,0
2017-09-22T05:16:51.428Z,0
2017-09-22T05:17:51.429Z,0
2017-09-22T05:18:51.431Z,0
2017-09-22T05:19:51.431Z,0
2017-09-22T05:20:51.529Z,0
2017-09-22T05:21:51.467Z,0
2017-09-22T05:22:51.494Z,0
2017-09-22T05:23:51.530Z,0
2017-09-22T05:24:51.597Z,0
2017-09-22T05:25:51.497Z,0
2017-09-22T05:26:51.485Z,0
2017-09-22T05:27:51.494Z,0
2017-09-22T05:28:51.498Z,0
2017-09-22T05:29:51.534Z,0
2017-09-22T05:30:51.531Z,0
2017-09-22T05:31:51.530Z,0
2017-09-22T05:32:51.530Z,0
2017-09-22T05:33:51.514Z,0
2017-09-22T05:34:51.549Z,0
2017-09-22T05:35:51.531Z,0
2017-09-22T05:36:51.484Z,0
2017-09-22T05:37:51.479Z,0
2017-09-22T05:38:51.516Z,0
2017-09-22T05:39:51.583Z,0
2017-09-22T05:40:51.586Z,0
2017-09-22T05:41:51.544Z,0
2017-09-22T05:42:51.522Z,0
2017-09-22T05:43:51.593Z,0
2017-09-22T05:44:51.538Z,0
2017-09-22T05:45:51.547Z,0
2017-09-22T05:46:51.512Z,0
2017-09-22T05:47:51.547Z,0
2017-09-22T05:48:51.590Z,0
2017-09-22T05:49:51.544Z,0
2017-09-22T05:50:51.494Z,0
2017-09-22T05:51:51.498Z,0
2017-09-22T05:52:51.550Z,0
2017-09-22T05:53:51.549Z,0
2017-09-22T05:54:51.579Z,0
2017-09-22T05:55:51.596Z,0
2017-09-22T05:56:51.546Z,0
2017-09-22T05:57:51.596Z,0
2017-09-22T05:58:51.600Z,0
2017-09-22T05:59:51.551Z,0
2017-09-22T06:00:51.500Z,0
2017-09-22T06:01:51.549Z,15
2017-09-22T06:02:51.505Z,17
2017-09-22T06:03:51.612Z,20
2017-09-22T06:04:51.597Z,23
2017-09-22T06:05:51.610Z,27
2017-09-22T06:06:51.534Z,28
2017-09-22T06:07:51.554Z,34
2017-09-22T06:08:51.540Z,36
2017-09-22T06:09:51.560Z,41
2017-09-22T06:10:51.605Z,44
2017-09-22T06:11:51.584Z,49
2017-09-22T06:12:51.509Z,54
2017-09-22T06:13:51.585Z,72
2017-09-22T06:14:51.634Z,74
2017-09-22T06:15:51.562Z,69
2017-09-22T06:16:51.562Z,69
2017-09-22T06:17:51.612Z,69
2017-09-22T06:18:51.608Z,67
2017-09-22T06:19:51.574Z,65
2017-09-22T06:20:51.507Z,68
2017-09-22T06:21:51.576Z,76
2017-09-22T06:22:51.540Z,88
2017-09-22T06:23:51.571Z,92
2017-09-22T06:24:51.514Z,85
2017-09-22T06:26:51.511Z,83
2017-09-22T06:27:51.538Z,75
2017-09-22T06:28:51.517Z,70
2017-09-22T06:29:51.552Z,67
2017-09-22T06:30:51.579Z,62
2017-09-22T06:31:51.565Z,61
2017-09-22T06:32:51.597Z,62
2017-09-22T06:33:51.571Z,62
2017-09-22T06:34:51.568Z,62
2017-09-22T06:35:51.577Z,63
2017-09-22T06:36:51.554Z,62
2017-09-22T06:37:51.623Z,62
2017-09-22T06:38:51.574Z,64
2017-09-22T06:39:51.573Z,64
2017-09-22T06:40:51.526Z,65
2017-09-22T06:41:51.575Z,65
2017-09-22T06:42:51.530Z,65
2017-09-22T06:43:51.538Z,65
2017-09-22T06:44:51.621Z,66
2017-09-22T06:45:51.543Z,70
2017-09-22T06:46:51.586Z,75
2017-09-22T06:47:51.585Z,77
2017-09-22T06:48:51.630Z,81
2017-09-22T06:49:51.660Z,80
2017-09-22T06:50:51.647Z,75
2017-09-22T06:51:51.583Z,79
2017-09-22T06:52:51.635Z,76
2017-09-22T06:53:51.614Z,75
2017-09-22T06:54:51.590Z,72
2017-09-22T06:56:51.567Z,71
2017-09-22T06:57:51.639Z,72
2017-09-22T06:58:51.628Z,73
2017-09-22T06:59:51.635Z,76
2017-09-22T07:00:51.551Z,80
2017-09-22T07:01:51.523Z,81
2017-09-22T07:02:51.525Z,89
2017-09-22T07:03:51.584Z,91
2017-09-22T07:04:51.554Z,96
2017-09-22T07:05:51.586Z,95
2017-09-22T07:06:51.557Z,96
2017-09-22T07:07:51.585Z,99
2017-09-22T07:08:51.526Z,100
2017-09-22T07:09:51.526Z,100
2017-09-22T07:10:51.537Z,102
2017-09-22T07:11:51.518Z,104
2017-09-22T07:12:51.531Z,104
2017-09-22T07:13:51.586Z,106
2017-09-22T07:14:51.512Z,110
2017-09-22T07:15:51.516Z,119
2017-09-22T07:16:51.515Z,123
2017-09-22T07:17:51.509Z,131
2017-09-22T07:18:51.544Z,129
2017-09-22T07:20:51.537Z,150
2017-09-22T07:21:51.565Z,158
2017-09-22T07:22:51.594Z,161
2017-09-22T07:23:51.574Z,160
2017-09-22T07:24:51.565Z,163
2017-09-22T07:25:51.538Z,160
2017-09-22T07:26:51.600Z,162
2017-09-22T07:27:51.539Z,165
2017-09-22T07:28:51.539Z,168
2017-09-22T07:29:51.568Z,167
2017-09-22T07:30:51.553Z,168
2017-09-22T07:31:51.561Z,170
2017-09-22T07:32:51.545Z,171
2017-09-22T07:33:51.573Z,174
2017-09-22T07:34:51.591Z,178
2017-09-22T07:35:51.616Z,181
2017-09-22T07:36:51.563Z,185
2017-09-22T07:37:51.572Z,187
2017-09-22T07:38:51.553Z,189
2017-09-22T07:39:51.528Z,193
2017-09-22T07:40:51.571Z,195
2017-09-22T07:41:51.641Z,198
2017-09-22T07:42:51.668Z,203
2017-09-22T07:43:51.610Z,200
2017-09-22T07:44:51.613Z,223
2017-09-22T07:45:51.621Z,232
2017-09-22T07:46:51.667Z,225
2017-09-22T07:47:51.666Z,208
2017-09-22T07:48:51.682Z,208
2017-09-22T07:49:51.657Z,238
2017-09-22T07:50:51.667Z,300
2017-09-22T07:51:51.626Z,265
2017-09-22T07:52:51.647Z,530
2017-09-22T07:53:51.652Z,488
2017-09-22T07:54:51.655Z,597
2017-09-22T07:55:51.562Z,454
2017-09-22T07:56:51.648Z,409
2017-09-22T07:57:51.581Z,340
2017-09-22T07:58:51.650Z,413
2017-09-22T07:59:51.621Z,396
2017-09-22T08:00:51.620Z,356
2017-09-22T08:01:51.573Z,517
2017-09-22T08:02:51.579Z,333
2017-09-22T08:03:51.703Z,275
2017-09-22T08:04:51.580Z,271
2017-09-22T08:05:51.627Z,270
2017-09-22T08:06:51.693Z,285
2017-09-22T08:07:51.635Z,294
2017-09-22T08:08:51.595Z,340
2017-09-22T08:09:51.627Z,416
2017-09-22T08:10:51.682Z,341
2017-09-22T08:11:51.642Z,321
2017-09-22T08:12:51.595Z,303
2017-09-22T08:13:51.609Z,299
2017-09-22T08:14:51.610Z,307
2017-09-22T08:15:51.604Z,308
2017-09-22T08:16:51.666Z,314
2017-09-22T08:17:51.572Z,324
2017-09-22T08:18:51.679Z,327
2017-09-22T08:19:51.627Z,330
2017-09-22T08:20:51.641Z,350
2017-09-22T08:21:51.598Z,467
2017-09-22T08:22:51.585Z,385
2017-09-22T08:23:51.599Z,397
2017-09-22T08:24:51.548Z,370
2017-09-22T08:25:51.557Z,390
2017-09-22T08:26:51.603Z,357
2017-09-22T08:27:51.579Z,344
2017-09-22T08:28:51.529Z,333
2017-09-22T08:29:51.641Z,335
2017-09-22T08:30:51.590Z,325
2017-09-22T08:31:51.628Z,325
2017-09-22T08:32:51.685Z,323
2017-09-22T08:33:51.646Z,326
2017-09-22T08:34:51.644Z,330
2017-09-22T08:35:51.651Z,331
2017-09-22T08:36:51.693Z,358
2017-09-22T08:37:51.644Z,350
2017-09-22T08:38:51.648Z,359
2017-09-22T08:39:51.595Z,343
2017-09-22T08:40:51.595Z,345
2017-09-22T08:41:51.594Z,349
2017-09-22T08:42:51.599Z,370
2017-09-22T08:43:51.617Z,365
2017-09-22T08:44:51.598Z,345
2017-09-22T08:45:51.633Z,344
2017-09-22T08:46:51.614Z,331
2017-09-22T08:47:51.615Z,326
2017-09-22T08:48:51.680Z,325
2017-09-22T08:49:51.656Z,323
2017-09-22T08:50:51.655Z,314
2017-09-22T08:51:51.666Z,310
2017-09-22T08:52:51.683Z,305
2017-09-22T08:53:51.701Z,292
2017-09-22T08:54:51.709Z,279
2017-09-22T08:55:51.634Z,270
2017-09-22T08:56:51.658Z,259
2017-09-22T08:57:51.635Z,256
2017-09-22T08:58:51.623Z,264
2017-09-22T08:59:51.666Z,272
2017-09-22T09:00:51.625Z,274
2017-09-22T09:01:51.603Z,286
2017-09-22T09:02:51.643Z,298
2017-09-22T09:03:51.623Z,316
2017-09-22T09:04:51.672Z,330
2017-09-22T09:05:51.706Z,346
2017-09-22T09:06:51.670Z,360
2017-09-22T09:07:51.625Z,367
2017-09-22T09:08:51.709Z,377
2017-09-22T09:09:51.663Z,383
2017-09-22T09:10:51.623Z,415
2017-09-22T09:11:51.645Z,433
2017-09-22T09:12:51.610Z,434
2017-09-22T09:13:51.649Z,432
2017-09-22T09:14:51.618Z,430
2017-09-22T09:15:51.666Z,434
2017-09-22T09:16:51.701Z,435
2017-09-22T09:17:51.619Z,430
2017-09-22T09:18:51.637Z,427
2017-09-22T09:19:51.609Z,430
2017-09-22T09:20:51.671Z,434
2017-09-22T09:21:51.653Z,433
2017-09-22T09:22:51.654Z,440
2017-09-22T09:23:51.721Z,440
2017-09-22T09:24:51.630Z,429
2017-09-22T09:25:51.631Z,413
2017-09-22T09:26:51.656Z,398
2017-09-22T09:27:51.674Z,394
2017-09-22T09:28:51.724Z,389
2017-09-22T09:29:51.656Z,389
2017-09-22T09:30:51.634Z,389
2017-09-22T09:31:51.727Z,388
2017-09-22T09:32:51.658Z,386
2017-09-22T09:33:51.649Z,376
2017-09-22T09:34:51.733Z,374
2017-09-22T09:35:51.731Z,372
2017-09-22T09:36:51.727Z,374
2017-09-22T09:37:51.731Z,378
2017-09-22T09:38:51.642Z,385
2017-09-22T09:39:51.633Z,384
2017-09-22T09:40:51.711Z,397
2017-09-22T09:41:51.678Z,424
2017-09-22T09:42:51.682Z,470
2017-09-22T09:43:51.665Z,483
2017-09-22T09:44:51.626Z,462
2017-09-22T09:45:51.731Z,453
2017-09-22T09:46:51.726Z,408
2017-09-22T09:47:51.715Z,385
2017-09-22T09:48:51.660Z,375
2017-09-22T09:49:51.659Z,368
2017-09-22T09:50:51.702Z,357
2017-09-22T09:51:51.639Z,354
2017-09-22T09:52:51.696Z,355
2017-09-22T09:53:51.636Z,356
2017-09-22T09:54:51.653Z,358
2017-09-22T09:55:51.703Z,362
2017-09-22T09:56:51.600Z,369
2017-09-22T09:57:51.641Z,368
2017-09-22T09:58:51.666Z,373
2017-09-22T09:59:51.689Z,378
2017-09-22T10:00:51.659Z,387
2017-09-22T10:01:51.637Z,395
2017-09-22T10:02:51.659Z,403
2017-09-22T10:03:51.661Z,409
2017-09-22T10:04:51.639Z,439
2017-09-22T10:05:51.692Z,454
2017-09-22T10:06:51.737Z,507
2017-09-22T10:07:51.736Z,532
2017-09-22T10:08:51.665Z,594
2017-09-22T10:09:51.677Z,645
2017-09-22T10:10:51.704Z,584
2017-09-22T10:11:51.746Z,564
2017-09-22T10:12:51.746Z,563
2017-09-22T10:13:51.677Z,562
2017-09-22T10:14:51.681Z,555
2017-09-22T10:15:51.698Z,555
2017-09-22T10:16:51.667Z,626
2017-09-22T10:17:51.871Z,843
2017-09-22T10:18:51.710Z,757
2017-09-22T10:19:51.684Z,744
2017-09-22T10:20:51.718Z,735
2017-09-22T10:21:51.644Z,838
2017-09-22T10:22:51.670Z,841
2017-09-22T10:23:51.648Z,747
2017-09-22T10:24:51.668Z,789
2017-09-22T10:25:51.649Z,837
2017-09-22T10:26:51.646Z,879
2017-09-22T10:27:51.776Z,900
2017-09-22T10:28:51.675Z,507
2017-09-22T10:29:51.712Z,460
2017-09-22T10:30:51.676Z,621
2017-09-22T10:31:51.653Z,608
2017-09-22T10:32:51.701Z,569
2017-09-22T10:33:51.670Z,532
2017-09-22T10:34:51.653Z,490
2017-09-22T10:35:51.630Z,510
2017-09-22T10:36:51.654Z,549
2017-09-22T10:37:51.666Z,597
2017-09-22T10:38:51.664Z,633
2017-09-22T10:39:51.657Z,594
2017-09-22T10:40:51.663Z,620
2017-09-22T10:41:51.698Z,554
2017-09-22T10:42:51.765Z,565
2017-09-22T10:43:51.772Z,598
2017-09-22T10:44:51.766Z,543
2017-09-22T10:45:51.730Z,574
2017-09-22T10:46:51.702Z,539
2017-09-22T10:47:51.722Z,574
2017-09-22T10:48:51.723Z,593
2017-09-22T10:49:51.732Z,571
2017-09-22T10:50:51.774Z,673
2017-09-22T10:51:51.733Z,633
2017-09-22T10:52:51.771Z,481
2017-09-22T10:53:51.727Z,475
2017-09-22T10:54:51.724Z,444
2017-09-22T10:55:51.726Z,403
2017-09-22T10:56:51.794Z,399
2017-09-22T10:57:51.706Z,413
2017-09-22T10:58:51.674Z,361
2017-09-22T10:59:51.729Z,336
2017-09-22T11:00:51.696Z,327
2017-09-22T11:01:51.731Z,322
2017-09-22T11:02:51.739Z,320
2017-09-22T11:03:51.675Z,316
2017-09-22T11:04:51.740Z,324
2017-09-22T11:05:51.730Z,337
2017-09-22T11:07:51.760Z,469
2017-09-22T11:08:51.743Z,799
2017-09-22T11:09:51.746Z,725
2017-09-22T11:10:51.737Z,985
2017-09-22T11:11:51.704Z,963
2017-09-22T11:12:51.786Z,931
2017-09-22T11:13:51.717Z,945
2017-09-22T11:14:51.742Z,939
2017-09-22T11:15:51.736Z,930
2017-09-22T11:16:51.779Z,927
2017-09-22T11:17:51.720Z,936
2017-09-22T11:18:51.770Z,925
2017-09-22T11:19:51.741Z,936
2017-09-22T11:20:51.768Z,930
2017-09-22T11:21:51.791Z,909
2017-09-22T11:22:51.749Z,908
2017-09-22T11:23:51.752Z,910
2017-09-22T11:24:51.695Z,909
2017-09-22T11:25:51.697Z,905
2017-09-22T11:26:51.755Z,885
2017-09-22T11:27:51.744Z,878
2017-09-22T11:28:51.798Z,881
2017-09-22T11:29:51.794Z,898
2017-09-22T11:30:51.746Z,902
2017-09-22T11:31:51.756Z,901
2017-09-22T11:32:51.761Z,905
2017-09-22T11:33:51.801Z,910
2017-09-22T11:34:51.739Z,906
2017-09-22T11:35:51.749Z,918
2017-09-22T11:36:51.696Z,919
2017-09-22T11:37:51.698Z,923
2017-09-22T11:38:51.800Z,928
2017-09-22T11:39:51.758Z,924
2017-09-22T11:40:51.797Z,906
2017-09-22T11:41:51.691Z,888
2017-09-22T11:42:51.722Z,947
2017-09-22T11:43:51.687Z,833
2017-09-22T11:44:51.717Z,446
2017-09-22T11:45:51.689Z,386
2017-09-22T11:46:51.693Z,366
2017-09-22T11:47:51.720Z,368
2017-09-22T11:48:51.751Z,683
2017-09-22T11:49:51.704Z,409
2017-09-22T11:50:51.721Z,384
2017-09-22T11:51:51.729Z,369
2017-09-22T11:52:51.735Z,1007
2017-09-22T11:53:51.794Z,672
2017-09-22T11:54:51.752Z,352
2017-09-22T11:55:51.769Z,334
2017-09-22T11:56:51.757Z,351
2017-09-22T11:57:51.792Z,340
2017-09-22T11:58:51.731Z,323
2017-09-22T11:59:51.710Z,321
2017-09-22T12:00:51.744Z,333
2017-09-22T12:01:51.730Z,361
2017-09-22T12:02:51.750Z,761
2017-09-22T12:03:51.766Z,951
2017-09-22T12:04:51.748Z,947
2017-09-22T12:05:51.777Z,953
2017-09-22T12:06:51.750Z,934
2017-09-22T12:07:51.753Z,920
2017-09-22T12:08:51.772Z,522
2017-09-22T12:09:51.815Z,897
2017-09-22T12:10:51.732Z,902
2017-09-22T12:11:51.717Z,954
2017-09-22T12:12:51.754Z,944
2017-09-22T12:13:51.824Z,922
2017-09-22T12:14:51.770Z,640
2017-09-22T12:15:51.776Z,381
2017-09-22T12:16:51.722Z,485
2017-09-22T12:17:51.819Z,475
2017-09-22T12:18:51.739Z,825
2017-09-22T12:19:51.816Z,663
2017-09-22T12:20:51.779Z,562
2017-09-22T12:21:51.748Z,970
2017-09-22T12:22:51.756Z,955
2017-09-22T12:23:51.745Z,937
2017-09-22T12:24:51.789Z,929
2017-09-22T12:25:51.807Z,918
2017-09-22T12:26:51.748Z,905
2017-09-22T12:27:51.726Z,889
2017-09-22T12:28:51.729Z,870
2017-09-22T12:29:51.727Z,858
2017-09-22T12:30:51.828Z,847
2017-09-22T12:31:51.754Z,830
2017-09-22T12:32:51.751Z,819
2017-09-22T12:33:51.799Z,797
2017-09-22T12:34:51.820Z,640
2017-09-22T12:35:51.817Z,669
2017-09-22T12:36:51.755Z,794
2017-09-22T12:37:51.794Z,783
2017-09-22T12:38:51.817Z,774
2017-09-22T12:39:51.801Z,771
2017-09-22T12:40:51.769Z,772
2017-09-22T12:41:51.735Z,760
2017-09-22T12:42:51.818Z,612
2017-09-22T12:43:51.792Z,481
2017-09-22T12:44:51.837Z,488
2017-09-22T12:45:51.771Z,776
2017-09-22T12:46:51.758Z,763
2017-09-22T12:47:51.740Z,752
2017-09-22T12:48:51.791Z,745
2017-09-22T12:49:51.850Z,737
2017-09-22T12:50:51.742Z,722
2017-09-22T12:51:51.745Z,716
2017-09-22T12:52:51.797Z,597
2017-09-22T12:53:51.841Z,676
2017-09-22T12:54:51.799Z,608
2017-09-22T12:55:51.800Z,659
2017-09-22T12:56:51.803Z,629
2017-09-22T12:57:51.808Z,597
2017-09-22T12:58:51.847Z,622
2017-09-22T12:59:51.854Z,606
2017-09-22T13:00:51.848Z,590
2017-09-22T13:01:51.857Z,643
2017-09-22T13:02:51.814Z,687
2017-09-22T13:03:51.784Z,687
2017-09-22T13:04:51.808Z,670
2017-09-22T13:05:51.785Z,653
2017-09-22T13:06:51.860Z,663
2017-09-22T13:07:51.785Z,673
2017-09-22T13:08:51.782Z,671
2017-09-22T13:09:51.838Z,665
2017-09-22T13:10:51.819Z,646
2017-09-22T13:11:51.808Z,643
2017-09-22T13:12:51.792Z,639
2017-09-22T13:13:51.888Z,640
2017-09-22T13:14:51.814Z,632
2017-09-22T13:15:51.818Z,624
2017-09-22T13:16:51.758Z,611
2017-09-22T13:17:51.790Z,612
2017-09-22T13:18:51.762Z,624
2017-09-22T13:19:51.806Z,629
2017-09-22T13:20:51.863Z,631
2017-09-22T13:21:51.808Z,625
2017-09-22T13:22:51.777Z,614
2017-09-22T13:23:51.775Z,618
2017-09-22T13:24:51.749Z,627
2017-09-22T13:25:51.780Z,622
2017-09-22T13:26:51.754Z,621
2017-09-22T13:27:51.810Z,619
2017-09-22T13:28:51.778Z,613
2017-09-22T13:29:51.749Z,609
2017-09-22T13:30:51.812Z,613
2017-09-22T13:31:51.819Z,603
2017-09-22T13:32:51.811Z,598
2017-09-22T13:33:51.754Z,597
2017-09-22T13:34:51.757Z,595
2017-09-22T13:35:51.784Z,597
2017-09-22T13:36:51.753Z,595
2017-09-22T13:37:51.839Z,589
2017-09-22T13:38:51.789Z,581
2017-09-22T13:39:51.818Z,576
2017-09-22T13:40:51.787Z,568
2017-09-22T13:41:51.874Z,573
2017-09-22T13:42:51.870Z,570
2017-09-22T13:43:51.811Z,564
2017-09-22T13:44:51.827Z,569
2017-09-22T13:45:51.872Z,561
2017-09-22T13:46:51.827Z,559
2017-09-22T13:47:51.828Z,560
2017-09-22T13:48:51.809Z,557
2017-09-22T13:49:51.882Z,537
2017-09-22T13:50:51.883Z,552
2017-09-22T13:51:51.839Z,551
2017-09-22T13:52:51.911Z,550
2017-09-22T13:53:51.871Z,544
2017-09-22T13:54:51.875Z,538
2017-09-22T13:55:51.784Z,534
2017-09-22T13:56:51.827Z,527
2017-09-22T13:57:51.837Z,523
2017-09-22T13:58:51.883Z,531
2017-09-22T13:59:51.797Z,514
2017-09-22T14:00:51.877Z,512
2017-09-22T14:01:51.785Z,494
2017-09-22T14:02:51.843Z,508
2017-09-22T14:03:51.818Z,504
2017-09-22T14:04:51.778Z,505
2017-09-22T14:05:51.823Z,486
2017-09-22T14:06:51.816Z,475
2017-09-22T14:07:51.817Z,464
2017-09-22T14:08:51.844Z,481
2017-09-22T14:09:51.848Z,481
2017-09-22T14:10:51.822Z,468
2017-09-22T14:11:51.809Z,463
2017-09-22T14:12:51.807Z,453
2017-09-22T14:13:51.895Z,458
2017-09-22T14:14:51.895Z,464
2017-09-22T14:15:51.850Z,463
2017-09-22T14:16:51.808Z,444
2017-09-22T14:17:51.901Z,460